sensor_id;sensor_type;location;lat;lon;timestamp;temperature;humidity
15698;DHT22;7949;48.726;9.102;2022-08-04T00:01:22;19.90;99.90
15698;DHT22;7949;48.726;9.102;2022-08-04T00:03:57;19.90;99.90
15698;DHT22;7949;48.726;9.102;2022-08-04T00:06:36;19.80;99.90
15698;DHT22;7949;48.726;9.102;2022-08-04T00:09:16;19.80;99.90
15698;DHT22;7949;48.726;9.102;2022-08-04T00:11:48;19.70;99.90
15698;DHT22;7949;48.726;9.102;2022-08-04T00:14:15;19.70;99.90
15698;DHT22;7949;48.726;9.102;2022-08-04T00:16:46;19.60;99.90
15698;DHT22;7949;48.726;9.102;2022-08-04T00:19:17;19.70;99.90
15698;DHT22;7949;48.726;9.102;2022-08-04T00:21:52;19.60;99.90
15698;DHT22;7949;48.726;9.102;2022-08-04T00:24:21;19.60;99.90
15698;DHT22;7949;48.726;9.102;2022-08-04T00:26:52;19.60;99.90
15698;DHT22;7949;48.726;9.102;2022-08-04T00:29:19;19.50;99.90
15698;DHT22;7949;48.726;9.102;2022-08-04T00:31:47;19.50;99.90
15698;DHT22;7949;48.726;9.102;2022-08-04T00:34:14;19.50;99.90
15698;DHT22;7949;48.726;9.102;2022-08-04T00:36:42;19.40;99.90
15698;DHT22;7949;48.726;9.102;2022-08-04T00:39:11;19.40;99.90
15698;DHT22;7949;48.726;9.102;2022-08-04T00:44:40;19.30;99.90
15698;DHT22;7949;48.726;9.102;2022-08-04T00:47:26;19.20;99.90
15698;DHT22;7949;48.726;9.102;2022-08-04T00:50:04;19.20;99.90
15698;DHT22;7949;48.726;9.102;2022-08-04T00:52:48;19.20;99.90
15698;DHT22;7949;48.726;9.102;2022-08-04T00:58:26;19.20;99.90
15698;DHT22;7949;48.726;9.102;2022-08-04T01:01:01;19.20;99.90
15698;DHT22;7949;48.726;9.102;2022-08-04T01:03:40;19.20;99.90
15698;DHT22;7949;48.726;9.102;2022-08-04T01:06:14;19.10;99.90
15698;DHT22;7949;48.726;9.102;2022-08-04T01:09:02;19.10;99.90
15698;DHT22;7949;48.726;9.102;2022-08-04T01:11:47;19.10;99.90
15698;DHT22;7949;48.726;9.102;2022-08-04T01:14:35;19.10;99.90
15698;DHT22;7949;48.726;9.102;2022-08-04T01:17:18;19.10;99.90
15698;DHT22;7949;48.726;9.102;2022-08-04T01:19:53;19.10;99.90
15698;DHT22;7949;48.726;9.102;2022-08-04T01:25:50;19.00;99.90
15698;DHT22;7949;48.726;9.102;2022-08-04T01:28:29;19.00;99.90
15698;DHT22;7949;48.726;9.102;2022-08-04T01:31:09;19.00;99.90
15698;DHT22;7949;48.726;9.102;2022-08-04T01:33:38;18.90;99.90
15698;DHT22;7949;48.726;9.102;2022-08-04T01:36:11;18.80;99.90
15698;DHT22;7949;48.726;9.102;2022-08-04T01:38:39;18.70;99.90
15698;DHT22;7949;48.726;9.102;2022-08-04T01:41:08;18.70;99.90
15698;DHT22;7949;48.726;9.102;2022-08-04T01:43:42;18.70;99.90
15698;DHT22;7949;48.726;9.102;2022-08-04T01:46:12;18.80;99.90
15698;DHT22;7949;48.726;9.102;2022-08-04T01:48:44;18.80;99.90
15698;DHT22;7949;48.726;9.102;2022-08-04T01:51:11;18.80;99.90
15698;DHT22;7949;48.726;9.102;2022-08-04T01:53:39;18.80;99.90
15698;DHT22;7949;48.726;9.102;2022-08-04T01:56:09;18.80;99.90
15698;DHT22;7949;48.726;9.102;2022-08-04T01:58:37;18.60;99.90
15698;DHT22;7949;48.726;9.102;2022-08-04T02:01:07;18.60;99.90
15698;DHT22;7949;48.726;9.102;2022-08-04T02:03:37;18.50;99.90
15698;DHT22;7949;48.726;9.102;2022-08-04T02:06:12;18.50;99.90
15698;DHT22;7949;48.726;9.102;2022-08-04T02:08:54;18.40;99.90
15698;DHT22;7949;48.726;9.102;2022-08-04T02:11:24;18.50;99.90
15698;DHT22;7949;48.726;9.102;2022-08-04T02:14:07;18.50;99.90
15698;DHT22;7949;48.726;9.102;2022-08-04T02:16:43;18.60;99.90
15698;DHT22;7949;48.726;9.102;2022-08-04T02:19:22;18.50;99.90
15698;DHT22;7949;48.726;9.102;2022-08-04T02:21:57;18.60;99.90
15698;DHT22;7949;48.726;9.102;2022-08-04T02:24:30;18.50;99.90
15698;DHT22;7949;48.726;9.102;2022-08-04T02:26:57;18.50;99.90
15698;DHT22;7949;48.726;9.102;2022-08-04T02:29:33;18.40;99.90
15698;DHT22;7949;48.726;9.102;2022-08-04T02:32:03;18.40;99.90
15698;DHT22;7949;48.726;9.102;2022-08-04T02:34:38;18.40;99.90
15698;DHT22;7949;48.726;9.102;2022-08-04T02:37:09;18.30;99.90
15698;DHT22;7949;48.726;9.102;2022-08-04T02:39:36;18.30;99.90
15698;DHT22;7949;48.726;9.102;2022-08-04T02:42:04;18.30;99.90
15698;DHT22;7949;48.726;9.102;2022-08-04T02:44:31;18.20;99.90
15698;DHT22;7949;48.726;9.102;2022-08-04T02:47:00;18.20;99.90
15698;DHT22;7949;48.726;9.102;2022-08-04T02:49:28;18.20;99.90
15698;DHT22;7949;48.726;9.102;2022-08-04T02:51:57;18.20;99.90
15698;DHT22;7949;48.726;9.102;2022-08-04T02:54:27;18.20;99.90
15698;DHT22;7949;48.726;9.102;2022-08-04T02:56:59;18.10;99.90
15698;DHT22;7949;48.726;9.102;2022-08-04T02:59:27;18.10;99.90
15698;DHT22;7949;48.726;9.102;2022-08-04T03:01:56;18.10;99.90
15698;DHT22;7949;48.726;9.102;2022-08-04T03:04:43;18.00;99.90
15698;DHT22;7949;48.726;9.102;2022-08-04T03:08:03;18.00;99.90
15698;DHT22;7949;48.726;9.102;2022-08-04T03:11:15;18.00;99.90
15698;DHT22;7949;48.726;9.102;2022-08-04T03:17:28;18.00;99.90
15698;DHT22;7949;48.726;9.102;2022-08-04T03:20:28;18.00;99.90
15698;DHT22;7949;48.726;9.102;2022-08-04T03:26:32;18.00;99.90
15698;DHT22;7949;48.726;9.102;2022-08-04T03:29:23;18.00;99.90
15698;DHT22;7949;48.726;9.102;2022-08-04T03:35:05;18.00;99.90
15698;DHT22;7949;48.726;9.102;2022-08-04T03:37:55;17.90;99.90
15698;DHT22;7949;48.726;9.102;2022-08-04T03:41:14;17.90;99.90
15698;DHT22;7949;48.726;9.102;2022-08-04T03:44:21;17.90;99.90
15698;DHT22;7949;48.726;9.102;2022-08-04T03:47:18;17.90;99.90
15698;DHT22;7949;48.726;9.102;2022-08-04T03:50:16;17.90;99.90
15698;DHT22;7949;48.726;9.102;2022-08-04T03:53:02;17.80;99.90
15698;DHT22;7949;48.726;9.102;2022-08-04T03:55:43;17.80;99.90
15698;DHT22;7949;48.726;9.102;2022-08-04T03:58:42;17.80;99.90
15698;DHT22;7949;48.726;9.102;2022-08-04T04:04:25;17.90;99.90
15698;DHT22;7949;48.726;9.102;2022-08-04T04:07:15;17.90;99.90
15698;DHT22;7949;48.726;9.102;2022-08-04T04:10:07;17.90;99.90
15698;DHT22;7949;48.726;9.102;2022-08-04T04:12:50;17.90;99.90
15698;DHT22;7949;48.726;9.102;2022-08-04T04:15:49;17.90;99.90
15698;DHT22;7949;48.726;9.102;2022-08-04T04:21:26;17.90;99.90
15698;DHT22;7949;48.726;9.102;2022-08-04T04:24:22;17.90;99.90
15698;DHT22;7949;48.726;9.102;2022-08-04T04:26:58;18.00;99.90
15698;DHT22;7949;48.726;9.102;2022-08-04T04:32:58;17.90;99.90
15698;DHT22;7949;48.726;9.102;2022-08-04T04:35:33;18.00;99.90
15698;DHT22;7949;48.726;9.102;2022-08-04T04:41:20;18.20;99.90
15698;DHT22;7949;48.726;9.102;2022-08-04T04:46:58;18.30;99.90
15698;DHT22;7949;48.726;9.102;2022-08-04T04:49:33;18.30;99.90
15698;DHT22;7949;48.726;9.102;2022-08-04T04:52:07;18.40;99.90
15698;DHT22;7949;48.726;9.102;2022-08-04T04:54:38;18.50;99.90
15698;DHT22;7949;48.726;9.102;2022-08-04T04:57:12;18.60;99.90
15698;DHT22;7949;48.726;9.102;2022-08-04T04:59:46;18.70;99.90
15698;DHT22;7949;48.726;9.102;2022-08-04T05:05:25;18.90;99.90
15698;DHT22;7949;48.726;9.102;2022-08-04T05:08:20;19.00;99.90
15698;DHT22;7949;48.726;9.102;2022-08-04T05:11:03;19.10;99.90
15698;DHT22;7949;48.726;9.102;2022-08-04T05:13:41;19.20;99.90
15698;DHT22;7949;48.726;9.102;2022-08-04T05:16:16;19.30;99.90
15698;DHT22;7949;48.726;9.102;2022-08-04T05:18:48;19.40;99.90
15698;DHT22;7949;48.726;9.102;2022-08-04T05:21:29;19.60;99.90
15698;DHT22;7949;48.726;9.102;2022-08-04T05:24:02;19.70;99.90
15698;DHT22;7949;48.726;9.102;2022-08-04T05:26:32;19.90;99.90
15698;DHT22;7949;48.726;9.102;2022-08-04T05:29:05;20.00;99.90
15698;DHT22;7949;48.726;9.102;2022-08-04T05:31:36;20.20;99.90
15698;DHT22;7949;48.726;9.102;2022-08-04T05:34:07;20.40;99.90
15698;DHT22;7949;48.726;9.102;2022-08-04T05:36:41;20.60;99.90
15698;DHT22;7949;48.726;9.102;2022-08-04T05:39:12;20.80;99.90
15698;DHT22;7949;48.726;9.102;2022-08-04T05:41:42;21.00;99.90
15698;DHT22;7949;48.726;9.102;2022-08-04T05:44:09;21.30;99.90
15698;DHT22;7949;48.726;9.102;2022-08-04T05:46:37;21.60;99.90
15698;DHT22;7949;48.726;9.102;2022-08-04T05:49:05;21.80;99.90
15698;DHT22;7949;48.726;9.102;2022-08-04T05:51:33;22.00;99.90
15698;DHT22;7949;48.726;9.102;2022-08-04T05:54:01;22.20;99.90
15698;DHT22;7949;48.726;9.102;2022-08-04T05:56:29;22.40;99.90
15698;DHT22;7949;48.726;9.102;2022-08-04T05:58:58;22.50;99.90
15698;DHT22;7949;48.726;9.102;2022-08-04T06:01:26;22.70;99.90
15698;DHT22;7949;48.726;9.102;2022-08-04T06:03:56;22.90;99.90
15698;DHT22;7949;48.726;9.102;2022-08-04T06:06:24;23.00;99.90
15698;DHT22;7949;48.726;9.102;2022-08-04T06:08:53;23.20;99.90
15698;DHT22;7949;48.726;9.102;2022-08-04T06:11:22;23.30;99.90
15698;DHT22;7949;48.726;9.102;2022-08-04T06:13:53;23.50;99.90
15698;DHT22;7949;48.726;9.102;2022-08-04T06:16:24;23.60;99.90
15698;DHT22;7949;48.726;9.102;2022-08-04T06:18:53;23.80;99.90
15698;DHT22;7949;48.726;9.102;2022-08-04T06:21:24;23.90;99.90
15698;DHT22;7949;48.726;9.102;2022-08-04T06:23:54;24.00;99.90
15698;DHT22;7949;48.726;9.102;2022-08-04T06:26:24;24.10;99.90
15698;DHT22;7949;48.726;9.102;2022-08-04T06:28:52;24.20;99.90
15698;DHT22;7949;48.726;9.102;2022-08-04T06:31:19;24.30;99.90
15698;DHT22;7949;48.726;9.102;2022-08-04T06:33:59;24.40;99.90
15698;DHT22;7949;48.726;9.102;2022-08-04T06:36:28;24.60;99.90
15698;DHT22;7949;48.726;9.102;2022-08-04T06:38:56;24.80;99.90
15698;DHT22;7949;48.726;9.102;2022-08-04T06:41:25;24.90;99.90
15698;DHT22;7949;48.726;9.102;2022-08-04T06:43:52;25.00;99.90
15698;DHT22;7949;48.726;9.102;2022-08-04T06:46:20;25.00;99.90
15698;DHT22;7949;48.726;9.102;2022-08-04T06:48:48;25.00;99.90
15698;DHT22;7949;48.726;9.102;2022-08-04T06:51:18;25.10;99.90
15698;DHT22;7949;48.726;9.102;2022-08-04T06:53:46;25.20;99.90
15698;DHT22;7949;48.726;9.102;2022-08-04T06:56:14;25.20;99.90
15698;DHT22;7949;48.726;9.102;2022-08-04T06:58:44;25.30;99.90
15698;DHT22;7949;48.726;9.102;2022-08-04T07:01:12;25.40;99.90
15698;DHT22;7949;48.726;9.102;2022-08-04T07:03:40;25.60;99.90
15698;DHT22;7949;48.726;9.102;2022-08-04T07:06:08;25.70;99.90
15698;DHT22;7949;48.726;9.102;2022-08-04T07:08:36;25.80;99.90
15698;DHT22;7949;48.726;9.102;2022-08-04T07:11:04;25.90;99.90
15698;DHT22;7949;48.726;9.102;2022-08-04T07:13:32;25.90;99.90
15698;DHT22;7949;48.726;9.102;2022-08-04T07:16:01;26.00;99.90
15698;DHT22;7949;48.726;9.102;2022-08-04T07:18:29;25.90;99.90
15698;DHT22;7949;48.726;9.102;2022-08-04T07:20:56;26.00;99.90
15698;DHT22;7949;48.726;9.102;2022-08-04T07:23:24;26.20;99.90
15698;DHT22;7949;48.726;9.102;2022-08-04T07:25:53;26.30;99.90
15698;DHT22;7949;48.726;9.102;2022-08-04T07:28:22;26.30;99.90
15698;DHT22;7949;48.726;9.102;2022-08-04T07:30:50;26.40;99.90
15698;DHT22;7949;48.726;9.102;2022-08-04T07:33:20;26.50;99.90
15698;DHT22;7949;48.726;9.102;2022-08-04T07:35:50;26.50;99.90
15698;DHT22;7949;48.726;9.102;2022-08-04T07:38:17;26.60;99.90
15698;DHT22;7949;48.726;9.102;2022-08-04T07:40:45;26.60;99.90
15698;DHT22;7949;48.726;9.102;2022-08-04T07:43:14;26.80;99.90
15698;DHT22;7949;48.726;9.102;2022-08-04T07:45:42;26.90;99.90
15698;DHT22;7949;48.726;9.102;2022-08-04T07:48:09;27.00;99.90
15698;DHT22;7949;48.726;9.102;2022-08-04T07:50:41;27.10;99.90
15698;DHT22;7949;48.726;9.102;2022-08-04T07:53:08;27.10;99.90
15698;DHT22;7949;48.726;9.102;2022-08-04T07:55:38;27.10;99.90
15698;DHT22;7949;48.726;9.102;2022-08-04T07:58:05;27.10;99.90
15698;DHT22;7949;48.726;9.102;2022-08-04T08:00:32;27.10;99.90
15698;DHT22;7949;48.726;9.102;2022-08-04T08:03:00;27.10;99.90
15698;DHT22;7949;48.726;9.102;2022-08-04T08:05:27;27.20;99.90
15698;DHT22;7949;48.726;9.102;2022-08-04T08:07:56;27.20;99.90
15698;DHT22;7949;48.726;9.102;2022-08-04T08:10:23;27.30;99.90
15698;DHT22;7949;48.726;9.102;2022-08-04T08:12:50;27.40;99.90
15698;DHT22;7949;48.726;9.102;2022-08-04T08:15:18;27.70;99.90
15698;DHT22;7949;48.726;9.102;2022-08-04T08:17:45;27.70;99.90
15698;DHT22;7949;48.726;9.102;2022-08-04T08:20:12;27.80;99.90
15698;DHT22;7949;48.726;9.102;2022-08-04T08:22:39;27.90;99.90
15698;DHT22;7949;48.726;9.102;2022-08-04T08:25:08;28.10;99.90
15698;DHT22;7949;48.726;9.102;2022-08-04T08:27:36;28.20;99.90
15698;DHT22;7949;48.726;9.102;2022-08-04T08:30:04;28.40;99.90
15698;DHT22;7949;48.726;9.102;2022-08-04T08:32:31;28.50;99.90
15698;DHT22;7949;48.726;9.102;2022-08-04T08:34:58;28.70;99.90
15698;DHT22;7949;48.726;9.102;2022-08-04T08:37:31;28.60;99.90
15698;DHT22;7949;48.726;9.102;2022-08-04T08:40:15;28.70;99.90
15698;DHT22;7949;48.726;9.102;2022-08-04T08:49:01;28.80;99.90
15698;DHT22;7949;48.726;9.102;2022-08-04T08:51:42;28.90;99.90
15698;DHT22;7949;48.726;9.102;2022-08-04T08:54:43;29.00;99.90
15698;DHT22;7949;48.726;9.102;2022-08-04T08:57:28;29.00;99.90
15698;DHT22;7949;48.726;9.102;2022-08-04T09:00:10;29.10;99.90
15698;DHT22;7949;48.726;9.102;2022-08-04T09:03:05;29.20;99.90
15698;DHT22;7949;48.726;9.102;2022-08-04T09:05:55;29.30;99.90
15698;DHT22;7949;48.726;9.102;2022-08-04T09:08:51;29.40;99.90
15698;DHT22;7949;48.726;9.102;2022-08-04T09:11:23;29.60;99.90
15698;DHT22;7949;48.726;9.102;2022-08-04T09:13:54;29.70;99.90
15698;DHT22;7949;48.726;9.102;2022-08-04T09:16:30;29.80;99.90
15698;DHT22;7949;48.726;9.102;2022-08-04T09:19:05;29.80;99.90
15698;DHT22;7949;48.726;9.102;2022-08-04T09:21:38;30.00;99.90
15698;DHT22;7949;48.726;9.102;2022-08-04T09:24:09;30.20;99.90
15698;DHT22;7949;48.726;9.102;2022-08-04T09:26:43;30.20;99.90
15698;DHT22;7949;48.726;9.102;2022-08-04T09:29:16;30.40;99.90
15698;DHT22;7949;48.726;9.102;2022-08-04T09:31:52;30.40;99.90
15698;DHT22;7949;48.726;9.102;2022-08-04T09:37:17;30.60;99.90
15698;DHT22;7949;48.726;9.102;2022-08-04T09:39:55;30.70;99.90
15698;DHT22;7949;48.726;9.102;2022-08-04T09:42:34;30.70;99.90
15698;DHT22;7949;48.726;9.102;2022-08-04T09:45:09;30.90;99.90
15698;DHT22;7949;48.726;9.102;2022-08-04T09:47:46;31.20;99.90
15698;DHT22;7949;48.726;9.102;2022-08-04T09:50:25;31.20;99.90
15698;DHT22;7949;48.726;9.102;2022-08-04T09:53:07;31.40;99.90
15698;DHT22;7949;48.726;9.102;2022-08-04T09:55:45;31.80;99.90
15698;DHT22;7949;48.726;9.102;2022-08-04T09:58:17;32.00;99.90
15698;DHT22;7949;48.726;9.102;2022-08-04T10:00:55;32.30;99.90
15698;DHT22;7949;48.726;9.102;2022-08-04T10:03:27;32.40;99.90
15698;DHT22;7949;48.726;9.102;2022-08-04T10:06:14;32.40;99.60
15698;DHT22;7949;48.726;9.102;2022-08-04T10:08:59;32.50;99.10
15698;DHT22;7949;48.726;9.102;2022-08-04T10:11:39;32.60;98.90
15698;DHT22;7949;48.726;9.102;2022-08-04T10:14:25;32.70;98.20
15698;DHT22;7949;48.726;9.102;2022-08-04T10:17:24;32.70;98.00
15698;DHT22;7949;48.726;9.102;2022-08-04T10:20:01;32.90;97.80
15698;DHT22;7949;48.726;9.102;2022-08-04T10:22:35;33.00;98.10
15698;DHT22;7949;48.726;9.102;2022-08-04T10:25:12;33.20;97.80
15698;DHT22;7949;48.726;9.102;2022-08-04T10:27:45;33.30;98.20
15698;DHT22;7949;48.726;9.102;2022-08-04T10:30:15;33.40;97.60
15698;DHT22;7949;48.726;9.102;2022-08-04T10:32:48;33.20;97.50
15698;DHT22;7949;48.726;9.102;2022-08-04T10:35:18;33.30;96.90
15698;DHT22;7949;48.726;9.102;2022-08-04T10:37:53;33.40;96.20
15698;DHT22;7949;48.726;9.102;2022-08-04T10:40:27;33.50;96.40
15698;DHT22;7949;48.726;9.102;2022-08-04T10:43:11;33.70;95.80
15698;DHT22;7949;48.726;9.102;2022-08-04T10:45:43;33.80;96.80
15698;DHT22;7949;48.726;9.102;2022-08-04T10:48:20;34.10;95.60
15698;DHT22;7949;48.726;9.102;2022-08-04T10:50:58;34.20;96.00
15698;DHT22;7949;48.726;9.102;2022-08-04T10:53:28;34.40;94.80
15698;DHT22;7949;48.726;9.102;2022-08-04T10:56:01;34.30;95.30
15698;DHT22;7949;48.726;9.102;2022-08-04T10:58:34;34.40;94.90
15698;DHT22;7949;48.726;9.102;2022-08-04T11:01:07;34.40;94.00
15698;DHT22;7949;48.726;9.102;2022-08-04T11:03:41;34.70;94.90
15698;DHT22;7949;48.726;9.102;2022-08-04T11:06:10;35.00;92.00
15698;DHT22;7949;48.726;9.102;2022-08-04T11:08:43;35.00;92.30
15698;DHT22;7949;48.726;9.102;2022-08-04T11:11:14;35.20;93.30
15698;DHT22;7949;48.726;9.102;2022-08-04T11:13:45;35.40;91.90
15698;DHT22;7949;48.726;9.102;2022-08-04T11:16:16;35.20;92.30
15698;DHT22;7949;48.726;9.102;2022-08-04T11:18:53;35.20;91.50
15698;DHT22;7949;48.726;9.102;2022-08-04T11:21:27;35.40;92.10
15698;DHT22;7949;48.726;9.102;2022-08-04T11:24:02;35.10;91.40
15698;DHT22;7949;48.726;9.102;2022-08-04T11:26:37;35.30;92.10
15698;DHT22;7949;48.726;9.102;2022-08-04T11:29:11;35.50;91.00
15698;DHT22;7949;48.726;9.102;2022-08-04T11:31:44;35.70;91.20
15698;DHT22;7949;48.726;9.102;2022-08-04T11:34:18;35.80;91.10
15698;DHT22;7949;48.726;9.102;2022-08-04T11:36:50;35.80;90.10
15698;DHT22;7949;48.726;9.102;2022-08-04T11:39:24;36.20;90.60
15698;DHT22;7949;48.726;9.102;2022-08-04T11:42:09;36.20;89.30
15698;DHT22;7949;48.726;9.102;2022-08-04T11:44:42;36.30;88.30
15698;DHT22;7949;48.726;9.102;2022-08-04T11:47:20;35.70;90.00
15698;DHT22;7949;48.726;9.102;2022-08-04T11:49:57;35.70;90.20
15698;DHT22;7949;48.726;9.102;2022-08-04T11:52:27;35.80;90.10
15698;DHT22;7949;48.726;9.102;2022-08-04T11:54:56;36.10;90.60
15698;DHT22;7949;48.726;9.102;2022-08-04T11:57:25;35.90;89.80
15698;DHT22;7949;48.726;9.102;2022-08-04T11:59:54;35.00;90.50
15698;DHT22;7949;48.726;9.102;2022-08-04T12:05:29;34.80;91.70
15698;DHT22;7949;48.726;9.102;2022-08-04T12:08:06;35.00;91.40
15698;DHT22;7949;48.726;9.102;2022-08-04T12:10:43;35.60;92.30
15698;DHT22;7949;48.726;9.102;2022-08-04T12:13:19;35.60;91.30
15698;DHT22;7949;48.726;9.102;2022-08-04T12:15:56;35.20;91.60
15698;DHT22;7949;48.726;9.102;2022-08-04T12:18:32;34.50;91.60
15698;DHT22;7949;48.726;9.102;2022-08-04T12:21:05;34.20;91.50
15698;DHT22;7949;48.726;9.102;2022-08-04T12:23:37;34.10;91.90
15698;DHT22;7949;48.726;9.102;2022-08-04T12:26:06;33.60;91.60
15698;DHT22;7949;48.726;9.102;2022-08-04T12:28:36;33.40;92.30
15698;DHT22;7949;48.726;9.102;2022-08-04T12:31:09;33.30;91.80
15698;DHT22;7949;48.726;9.102;2022-08-04T12:33:42;33.80;92.40
15698;DHT22;7949;48.726;9.102;2022-08-04T12:36:19;34.70;92.00
15698;DHT22;7949;48.726;9.102;2022-08-04T12:38:53;34.60;91.10
15698;DHT22;7949;48.726;9.102;2022-08-04T12:41:29;34.20;90.70
15698;DHT22;7949;48.726;9.102;2022-08-04T12:44:03;33.90;91.80
15698;DHT22;7949;48.726;9.102;2022-08-04T12:46:31;33.80;92.20
15698;DHT22;7949;48.726;9.102;2022-08-04T12:49:01;33.70;92.70
15698;DHT22;7949;48.726;9.102;2022-08-04T12:51:36;33.50;93.30
15698;DHT22;7949;48.726;9.102;2022-08-04T12:54:04;33.80;93.50
15698;DHT22;7949;48.726;9.102;2022-08-04T12:56:32;34.10;92.60
15698;DHT22;7949;48.726;9.102;2022-08-04T12:59:03;34.30;92.70
15698;DHT22;7949;48.726;9.102;2022-08-04T13:01:31;35.10;92.90
15698;DHT22;7949;48.726;9.102;2022-08-04T13:04:01;36.10;91.60
15698;DHT22;7949;48.726;9.102;2022-08-04T13:06:33;36.50;91.10
15698;DHT22;7949;48.726;9.102;2022-08-04T13:09:07;36.90;90.30
15698;DHT22;7949;48.726;9.102;2022-08-04T13:11:40;37.30;88.10
15698;DHT22;7949;48.726;9.102;2022-08-04T13:14:11;37.60;88.10
15698;DHT22;7949;48.726;9.102;2022-08-04T13:16:39;37.10;88.30
15698;DHT22;7949;48.726;9.102;2022-08-04T13:19:07;35.60;89.80
15698;DHT22;7949;48.726;9.102;2022-08-04T13:21:42;35.70;88.10
15698;DHT22;7949;48.726;9.102;2022-08-04T13:24:12;34.80;91.40
15698;DHT22;7949;48.726;9.102;2022-08-04T13:26:52;34.70;91.50
15698;DHT22;7949;48.726;9.102;2022-08-04T13:29:21;34.80;90.80
15698;DHT22;7949;48.726;9.102;2022-08-04T13:31:49;34.80;90.40
15698;DHT22;7949;48.726;9.102;2022-08-04T13:34:18;35.00;91.30
15698;DHT22;7949;48.726;9.102;2022-08-04T13:36:48;34.60;89.00
15698;DHT22;7949;48.726;9.102;2022-08-04T13:39:18;35.30;90.90
15698;DHT22;7949;48.726;9.102;2022-08-04T13:41:49;36.00;89.00
15698;DHT22;7949;48.726;9.102;2022-08-04T13:44:19;36.50;90.50
15698;DHT22;7949;48.726;9.102;2022-08-04T13:46:49;37.40;90.30
15698;DHT22;7949;48.726;9.102;2022-08-04T13:49:26;38.20;87.00
15698;DHT22;7949;48.726;9.102;2022-08-04T13:51:59;38.40;85.30
15698;DHT22;7949;48.726;9.102;2022-08-04T13:54:35;38.60;85.60
15698;DHT22;7949;48.726;9.102;2022-08-04T13:57:07;38.40;85.50
15698;DHT22;7949;48.726;9.102;2022-08-04T13:59:37;38.50;84.60
15698;DHT22;7949;48.726;9.102;2022-08-04T14:02:08;38.70;84.00
15698;DHT22;7949;48.726;9.102;2022-08-04T14:04:42;38.30;84.50
15698;DHT22;7949;48.726;9.102;2022-08-04T14:07:17;38.60;83.70
15698;DHT22;7949;48.726;9.102;2022-08-04T14:09:44;38.60;83.30
15698;DHT22;7949;48.726;9.102;2022-08-04T14:12:13;38.20;85.30
15698;DHT22;7949;48.726;9.102;2022-08-04T14:14:45;37.50;83.70
15698;DHT22;7949;48.726;9.102;2022-08-04T14:17:14;36.80;85.80
15698;DHT22;7949;48.726;9.102;2022-08-04T14:19:51;36.40;85.90
15698;DHT22;7949;48.726;9.102;2022-08-04T14:22:36;36.20;86.00
15698;DHT22;7949;48.726;9.102;2022-08-04T14:25:06;36.10;85.60
15698;DHT22;7949;48.726;9.102;2022-08-04T14:27:43;36.50;86.10
15698;DHT22;7949;48.726;9.102;2022-08-04T14:30:25;36.80;86.70
15698;DHT22;7949;48.726;9.102;2022-08-04T14:32:58;37.00;85.30
15698;DHT22;7949;48.726;9.102;2022-08-04T14:35:26;37.70;87.10
15698;DHT22;7949;48.726;9.102;2022-08-04T14:37:56;38.00;84.50
15698;DHT22;7949;48.726;9.102;2022-08-04T14:40:25;38.30;81.90
15698;DHT22;7949;48.726;9.102;2022-08-04T14:42:52;37.40;83.90
15698;DHT22;7949;48.726;9.102;2022-08-04T14:45:27;36.80;84.70
15698;DHT22;7949;48.726;9.102;2022-08-04T14:47:55;36.30;86.80
15698;DHT22;7949;48.726;9.102;2022-08-04T14:50:33;35.90;86.50
15698;DHT22;7949;48.726;9.102;2022-08-04T14:53:07;35.70;86.50
15698;DHT22;7949;48.726;9.102;2022-08-04T14:55:35;35.70;85.80
15698;DHT22;7949;48.726;9.102;2022-08-04T14:58:03;35.90;87.00
15698;DHT22;7949;48.726;9.102;2022-08-04T15:00:32;35.90;87.30
15698;DHT22;7949;48.726;9.102;2022-08-04T15:03:01;36.40;87.50
15698;DHT22;7949;48.726;9.102;2022-08-04T15:05:29;37.00;85.00
15698;DHT22;7949;48.726;9.102;2022-08-04T15:07:56;37.20;83.70
15698;DHT22;7949;48.726;9.102;2022-08-04T15:10:25;37.40;84.90
15698;DHT22;7949;48.726;9.102;2022-08-04T15:12:52;37.90;83.90
15698;DHT22;7949;48.726;9.102;2022-08-04T15:15:20;38.20;83.30
15698;DHT22;7949;48.726;9.102;2022-08-04T15:17:47;38.40;81.40
15698;DHT22;7949;48.726;9.102;2022-08-04T15:20:14;38.40;81.60
15698;DHT22;7949;48.726;9.102;2022-08-04T15:22:42;37.70;82.10
15698;DHT22;7949;48.726;9.102;2022-08-04T15:25:09;37.10;85.10
15698;DHT22;7949;48.726;9.102;2022-08-04T15:27:39;36.60;83.90
15698;DHT22;7949;48.726;9.102;2022-08-04T15:30:09;36.30;84.10
15698;DHT22;7949;48.726;9.102;2022-08-04T15:32:38;35.80;84.40
15698;DHT22;7949;48.726;9.102;2022-08-04T15:35:10;35.60;85.50
15698;DHT22;7949;48.726;9.102;2022-08-04T15:37:45;35.20;84.20
15698;DHT22;7949;48.726;9.102;2022-08-04T15:40:17;35.00;84.70
15698;DHT22;7949;48.726;9.102;2022-08-04T15:42:48;34.60;86.90
15698;DHT22;7949;48.726;9.102;2022-08-04T15:49:36;34.20;88.90
15698;DHT22;7949;48.726;9.102;2022-08-04T15:52:12;34.10;87.00
15698;DHT22;7949;48.726;9.102;2022-08-04T15:57:02;34.10;87.00
15698;DHT22;7949;48.726;9.102;2022-08-04T15:59:03;34.10;86.60
15698;DHT22;7949;48.726;9.102;2022-08-04T16:01:41;33.90;84.20
15698;DHT22;7949;48.726;9.102;2022-08-04T16:04:23;33.90;83.90
15698;DHT22;7949;48.726;9.102;2022-08-04T16:06:51;33.80;85.00
15698;DHT22;7949;48.726;9.102;2022-08-04T16:09:29;33.80;86.30
15698;DHT22;7949;48.726;9.102;2022-08-04T16:12:03;33.80;83.60
15698;DHT22;7949;48.726;9.102;2022-08-04T16:14:39;33.90;88.00
15698;DHT22;7949;48.726;9.102;2022-08-04T16:17:25;33.90;86.00
15698;DHT22;7949;48.726;9.102;2022-08-04T16:20:11;33.90;85.30
15698;DHT22;7949;48.726;9.102;2022-08-04T16:22:48;33.90;85.90
15698;DHT22;7949;48.726;9.102;2022-08-04T16:25:42;33.90;88.10
15698;DHT22;7949;48.726;9.102;2022-08-04T16:28:35;33.80;86.60
15698;DHT22;7949;48.726;9.102;2022-08-04T16:31:05;33.70;87.80
15698;DHT22;7949;48.726;9.102;2022-08-04T16:33:33;33.60;85.90
15698;DHT22;7949;48.726;9.102;2022-08-04T16:36:01;33.50;85.90
15698;DHT22;7949;48.726;9.102;2022-08-04T16:38:28;33.60;85.30
15698;DHT22;7949;48.726;9.102;2022-08-04T16:40:56;33.50;86.20
15698;DHT22;7949;48.726;9.102;2022-08-04T16:43:27;33.50;85.10
15698;DHT22;7949;48.726;9.102;2022-08-04T16:45:56;33.50;86.60
15698;DHT22;7949;48.726;9.102;2022-08-04T16:48:27;33.50;85.90
15698;DHT22;7949;48.726;9.102;2022-08-04T16:50:59;33.50;88.00
15698;DHT22;7949;48.726;9.102;2022-08-04T16:53:33;33.50;88.00
15698;DHT22;7949;48.726;9.102;2022-08-04T16:56:01;33.40;87.50
15698;DHT22;7949;48.726;9.102;2022-08-04T16:58:30;33.30;88.20
15698;DHT22;7949;48.726;9.102;2022-08-04T17:00:58;33.30;88.20
15698;DHT22;7949;48.726;9.102;2022-08-04T17:03:35;33.30;90.10
15698;DHT22;7949;48.726;9.102;2022-08-04T17:06:07;33.30;87.30
15698;DHT22;7949;48.726;9.102;2022-08-04T17:08:34;33.20;87.70
15698;DHT22;7949;48.726;9.102;2022-08-04T17:11:03;33.30;89.10
15698;DHT22;7949;48.726;9.102;2022-08-04T17:13:32;33.30;87.00
15698;DHT22;7949;48.726;9.102;2022-08-04T17:16:00;33.40;87.70
15698;DHT22;7949;48.726;9.102;2022-08-04T17:18:29;33.40;88.30
15698;DHT22;7949;48.726;9.102;2022-08-04T17:21:01;33.40;87.60
15698;DHT22;7949;48.726;9.102;2022-08-04T17:23:35;33.50;87.20